createdAt,value
2023-03-06T00:01:48.951Z,99674.66
2023-03-06T00:04:51.575Z,99684.25
2023-03-06T00:07:54.128Z,99676.69
2023-03-06T00:10:57.580Z,99677.63
2023-03-06T00:14:00.281Z,99675.19
2023-03-06T00:17:02.980Z,99700.81
2023-03-06T00:20:06.707Z,99706.91
2023-03-06T00:23:10.058Z,99699.38
2023-03-06T00:26:12.910Z,99696.84
2023-03-06T00:29:17.763Z,99655.63
2023-03-06T00:32:20.847Z,99662.34
2023-03-06T00:35:23.604Z,99678.34
2023-03-06T00:38:28.635Z,99642.00
2023-03-06T00:41:32.167Z,99614.06
2023-03-06T00:44:36.111Z,99680.84
2023-03-06T00:47:39.155Z,99668.22
2023-03-06T00:50:41.908Z,99677.63
2023-03-06T00:53:44.531Z,99676.91
2023-03-06T00:56:47.139Z,99666.75
2023-03-06T00:59:50.352Z,99655.72
2023-03-06T01:02:53.776Z,99663.28
2023-03-06T01:05:58.105Z,99637.41
2023-03-06T01:09:06.478Z,99661.97
2023-03-06T01:12:09.419Z,99658.41
2023-03-06T01:15:13.260Z,99628.88
2023-03-06T01:18:16.008Z,99664.59
2023-03-06T01:21:19.105Z,99662.16
2023-03-06T01:24:24.028Z,99661.72
2023-03-06T01:27:26.679Z,99667.06
2023-03-06T01:30:29.317Z,99657.94
2023-03-06T01:33:31.941Z,99637.97
2023-03-06T01:36:34.537Z,99637.19
2023-03-06T01:39:38.546Z,99658.06
2023-03-06T01:42:42.190Z,99653.06
2023-03-06T01:45:50.658Z,99651.41
2023-03-06T01:48:56.787Z,99612.59
2023-03-06T01:52:21.450Z,99646.53
2023-03-06T01:55:31.067Z,99617.72
2023-03-06T01:58:34.401Z,99629.78
2023-03-06T02:01:39.973Z,99633.25
2023-03-06T02:04:44.252Z,99629.88
2023-03-06T02:07:48.077Z,99649.31
2023-03-06T02:11:08.881Z,99663.41
2023-03-06T02:14:14.522Z,99662.63
2023-03-06T02:17:20.531Z,99638.19
2023-03-06T02:20:31.862Z,99673.53
2023-03-06T02:23:49.259Z,99665.81
2023-03-06T02:26:53.290Z,99636.25
2023-03-06T02:29:56.052Z,99663.09
2023-03-06T02:32:58.878Z,99659.56
2023-03-06T02:36:06.920Z,99626.59
2023-03-06T02:39:10.623Z,99631.56
2023-03-06T02:42:19.609Z,99655.16
2023-03-06T02:45:45.392Z,99637.34
2023-03-06T02:48:48.163Z,99647.63
2023-03-06T02:51:50.778Z,99656.00
2023-03-06T02:54:53.324Z,99595.38
2023-03-06T02:57:56.147Z,99627.25
2023-03-06T03:00:59.659Z,99667.00
2023-03-06T03:04:02.243Z,99661.22
2023-03-06T03:07:05.565Z,99659.59
2023-03-06T03:10:08.949Z,99642.88
2023-03-06T03:13:11.538Z,99628.50
2023-03-06T03:16:15.606Z,99653.88
2023-03-06T03:19:18.721Z,99663.09
2023-03-06T03:22:22.077Z,99621.63
2023-03-06T03:25:26.484Z,99653.97
2023-03-06T03:28:31.688Z,99659.94
2023-03-06T03:31:34.771Z,99644.59
2023-03-06T03:34:38.526Z,99654.00
2023-03-06T03:37:41.873Z,99593.84
2023-03-06T03:40:45.095Z,99631.84
2023-03-06T03:43:48.639Z,99648.59
2023-03-06T03:46:51.783Z,99646.72
2023-03-06T03:49:57.777Z,99639.94
2023-03-06T03:53:00.930Z,99635.00
2023-03-06T03:56:04.458Z,99648.59
2023-03-06T03:59:09.719Z,99650.25
2023-03-06T04:02:21.904Z,99654.63
2023-03-06T04:05:36.189Z,99661.63
2023-03-06T04:08:41.791Z,99648.97
2023-03-06T04:11:44.362Z,99653.84
2023-03-06T04:14:47.563Z,99608.78
2023-03-06T04:17:50.266Z,99618.94
2023-03-06T04:20:56.447Z,99613.81
2023-03-06T04:23:59.111Z,99599.31
2023-03-06T04:27:01.741Z,99572.38
2023-03-06T04:30:06.326Z,99567.38
2023-03-06T04:33:10.842Z,99581.72
2023-03-06T04:36:30.322Z,99602.03
2023-03-06T04:39:36.904Z,99609.81
2023-03-06T04:42:39.463Z,99570.00
2023-03-06T04:45:42.073Z,99614.03
2023-03-06T04:48:44.747Z,99584.41
2023-03-06T04:51:47.338Z,99631.84
2023-03-06T04:54:49.906Z,99595.50
2023-03-06T04:57:52.674Z,99624.41
2023-03-06T05:00:55.354Z,99636.41
2023-03-06T05:03:57.914Z,99639.88
2023-03-06T05:07:00.495Z,99637.16
2023-03-06T05:10:03.413Z,99610.97
2023-03-06T05:13:06.066Z,99644.69
2023-03-06T05:16:09.320Z,99645.75
2023-03-06T05:19:12.107Z,99624.41
2023-03-06T05:22:14.966Z,99622.56
2023-03-06T05:25:17.599Z,99645.94
2023-03-06T05:28:20.375Z,99647.00
2023-03-06T05:31:23.145Z,99614.88
2023-03-06T05:34:25.770Z,99634.97
2023-03-06T05:37:28.446Z,99608.66
2023-03-06T05:40:31.361Z,99597.66
2023-03-06T05:43:33.945Z,99612.84
2023-03-06T05:46:37.831Z,99641.59
2023-03-06T05:49:41.139Z,99604.25
2023-03-06T05:52:43.868Z,99639.75
2023-03-06T05:55:46.503Z,99611.16
2023-03-06T05:58:49.229Z,99653.41
2023-03-06T06:01:51.835Z,99626.50
2023-03-06T06:04:54.475Z,99631.50
2023-03-06T06:07:57.081Z,99658.34
2023-03-06T06:11:00.100Z,99664.94
2023-03-06T06:14:02.735Z,99681.91
2023-03-06T06:17:05.508Z,99670.78
2023-03-06T06:20:08.993Z,99676.63
2023-03-06T06:23:11.808Z,99678.84
2023-03-06T06:26:14.438Z,99680.28
2023-03-06T06:29:17.256Z,99686.41
2023-03-06T06:32:20.112Z,99675.16
2023-03-06T06:35:23.066Z,99687.09
2023-03-06T06:38:26.247Z,99685.59
2023-03-06T06:41:53.457Z,99691.25
2023-03-06T06:44:53.023Z,99658.84
2023-03-06T06:47:55.696Z,99665.53
2023-03-06T06:50:59.208Z,99661.81
2023-03-06T06:54:04.299Z,99665.03
2023-03-06T06:57:06.888Z,99687.59
2023-03-06T07:00:13.457Z,99685.53
2023-03-06T07:03:16.275Z,99661.53
2023-03-06T07:06:19.038Z,99666.34
2023-03-06T07:09:22.446Z,99689.00
2023-03-06T07:12:25.043Z,99659.91
2023-03-06T07:15:29.942Z,99673.66
2023-03-06T07:18:32.812Z,99670.00
2023-03-06T07:21:36.242Z,99651.25
2023-03-06T07:24:38.822Z,99673.88
2023-03-06T07:27:41.494Z,99702.38
2023-03-06T07:30:44.588Z,99699.94
2023-03-06T07:33:47.149Z,99652.59
2023-03-06T07:36:50.972Z,99706.44
2023-03-06T07:39:53.507Z,99697.50
2023-03-06T07:43:09.106Z,99687.53
2023-03-06T07:46:19.525Z,99693.28
2023-03-06T07:49:25.097Z,99684.22
2023-03-06T07:52:29.893Z,99681.13
2023-03-06T07:55:32.500Z,99699.56
2023-03-06T07:58:36.598Z,99706.63
2023-03-06T08:01:40.377Z,99661.59
2023-03-06T08:05:48.430Z,99709.97
2023-03-06T08:08:54.103Z,99688.47
2023-03-06T08:11:57.317Z,99682.56
2023-03-06T08:15:03.555Z,99707.41
2023-03-06T08:18:06.264Z,99681.44
2023-03-06T08:21:11.839Z,99705.41
2023-03-06T08:24:16.717Z,99665.06
2023-03-06T08:27:19.362Z,99711.75
2023-03-06T08:30:22.032Z,99716.91
2023-03-06T08:33:25.111Z,99722.13
2023-03-06T08:36:28.120Z,99699.09
2023-03-06T08:39:32.872Z,99729.91
2023-03-06T08:42:44.941Z,99695.41
2023-03-06T08:45:55.642Z,99678.59
2023-03-06T08:48:58.974Z,99728.38
2023-03-06T08:52:01.578Z,99705.25
2023-03-06T08:55:05.314Z,99729.34
2023-03-06T08:58:08.686Z,99711.56
2023-03-06T09:01:16.672Z,99724.28
2023-03-06T09:04:19.319Z,99735.41
2023-03-06T09:07:21.983Z,99731.28
2023-03-06T09:10:26.322Z,99732.44
2023-03-06T09:13:29.055Z,99724.28
2023-03-06T09:16:32.478Z,99724.28
2023-03-06T09:19:35.183Z,99729.72
2023-03-06T09:22:38.099Z,99714.19
2023-03-06T09:25:40.682Z,99731.34
2023-03-06T09:28:43.332Z,99723.59
2023-03-06T09:31:46.086Z,99730.69
2023-03-06T09:34:50.322Z,99738.06
2023-03-06T09:37:52.853Z,99734.22
2023-03-06T09:40:58.353Z,99731.75
2023-03-06T09:44:14.699Z,99723.63
2023-03-06T09:47:52.665Z,99727.69
2023-03-06T09:51:08.463Z,99707.31
2023-03-06T09:54:16.040Z,99714.66
2023-03-06T09:57:28.359Z,99725.03
2023-03-06T10:00:51.413Z,99734.38
2023-03-06T10:04:12.026Z,99712.72
2023-03-06T10:07:51.964Z,99733.97
2023-03-06T10:11:01.970Z,99714.66
2023-03-06T10:14:16.440Z,99748.00
2023-03-06T10:17:24.067Z,99736.16
2023-03-06T10:20:33.858Z,99710.97
2023-03-06T10:23:51.854Z,99709.53
2023-03-06T10:27:21.628Z,99732.09
2023-03-06T10:30:59.645Z,99736.31
2023-03-06T10:34:22.896Z,99730.84
2023-03-06T10:37:26.279Z,99745.34
2023-03-06T10:40:40.500Z,99732.00
2023-03-06T10:43:44.602Z,99739.00
2023-03-06T10:46:50.037Z,99728.09
2023-03-06T10:50:01.725Z,99739.13
2023-03-06T10:53:19.244Z,99726.38
2023-03-06T10:56:29.373Z,99703.78
2023-03-06T10:59:32.213Z,99704.34
2023-03-06T11:02:38.696Z,99720.41
2023-03-06T11:05:58.253Z,99715.31
2023-03-06T11:09:18.822Z,99723.75
2023-03-06T11:12:33.342Z,99729.31
2023-03-06T11:15:36.237Z,99713.84
2023-03-06T11:18:41.152Z,99710.41
2023-03-06T11:21:58.515Z,99714.44
2023-03-06T11:25:01.629Z,99709.16
2023-03-06T11:28:34.864Z,99705.47
2023-03-06T11:32:07.556Z,99700.72
2023-03-06T11:35:14.135Z,99669.75
2023-03-06T11:38:30.942Z,99673.72
2023-03-06T11:41:48.055Z,99684.28
2023-03-06T11:44:55.496Z,99702.44
2023-03-06T11:48:11.873Z,99676.44
2023-03-06T11:51:19.908Z,99658.66
2023-03-06T11:54:23.282Z,99686.44
2023-03-06T11:57:35.288Z,99620.91
2023-03-06T12:01:15.967Z,99676.66
2023-03-06T12:04:24.189Z,99678.63
2023-03-06T12:07:35.873Z,99674.41
2023-03-06T12:10:51.869Z,99665.34
2023-03-06T12:14:12.444Z,99648.03
2023-03-06T12:17:26.885Z,99671.81
2023-03-06T12:20:33.077Z,99676.91
2023-03-06T12:24:00.663Z,99653.41
2023-03-06T12:27:19.993Z,99660.63
2023-03-06T12:30:31.371Z,99676.41
2023-03-06T12:33:58.660Z,99669.56
2023-03-06T12:37:04.086Z,99676.22
2023-03-06T12:40:30.758Z,99670.88
2023-03-06T12:43:45.344Z,99665.44
2023-03-06T12:46:54.916Z,99625.44
2023-03-06T12:50:05.320Z,99628.97
2023-03-06T12:53:14.530Z,99654.28
2023-03-06T12:56:19.032Z,99638.78
2023-03-06T12:59:42.825Z,99619.06
2023-03-06T13:03:12.432Z,99632.72
2023-03-06T13:06:32.462Z,99639.13
2023-03-06T13:09:58.058Z,99613.25
2023-03-06T13:13:05.133Z,99609.03
2023-03-06T13:16:12.524Z,99621.91
2023-03-06T13:19:25.298Z,99619.44
2023-03-06T13:22:30.124Z,99609.94
2023-03-06T13:25:45.791Z,99585.78
2023-03-06T13:28:51.071Z,99577.19
2023-03-06T13:31:53.734Z,99610.72
2023-03-06T13:34:56.447Z,99605.84
2023-03-06T13:38:00.287Z,99605.38
2023-03-06T13:41:21.131Z,99602.66
2023-03-06T13:44:23.682Z,99601.66
2023-03-06T13:48:02.789Z,99595.81
2023-03-06T13:51:24.729Z,99596.81
2023-03-06T13:54:27.285Z,99600.72
2023-03-06T13:57:38.678Z,99598.50
2023-03-06T14:00:56.071Z,99598.16
2023-03-06T14:04:15.395Z,99586.53
2023-03-06T14:07:20.690Z,99591.06
2023-03-06T14:10:25.426Z,99582.00
2023-03-06T14:13:46.703Z,99558.16
2023-03-06T14:16:51.090Z,99529.16
2023-03-06T14:19:54.917Z,99571.28
2023-03-06T14:23:26.894Z,99571.50
2023-03-06T14:26:44.165Z,99568.09
2023-03-06T14:29:48.808Z,99544.75
2023-03-06T14:32:53.998Z,99563.91
2023-03-06T14:36:01.184Z,99549.31
2023-03-06T14:39:22.883Z,99561.81
2023-03-06T14:42:29.687Z,99547.47
2023-03-06T14:45:32.358Z,99540.25
2023-03-06T14:48:41.373Z,99540.38
2023-03-06T14:51:46.834Z,99540.78
2023-03-06T14:54:49.977Z,99548.44
2023-03-06T14:58:04.619Z,99537.84
2023-03-06T15:01:09.893Z,99550.72
2023-03-06T15:04:26.432Z,99575.59
2023-03-06T15:07:32.611Z,99576.50
2023-03-06T15:10:36.798Z,99554.72
2023-03-06T15:13:39.704Z,99563.56
2023-03-06T15:16:42.425Z,99534.31
2023-03-06T15:19:47.410Z,99552.50
2023-03-06T15:22:50.984Z,99561.69
2023-03-06T15:26:03.618Z,99550.69
2023-03-06T15:29:10.062Z,99559.38
2023-03-06T15:32:34.737Z,99562.13
2023-03-06T15:35:38.406Z,99520.38
2023-03-06T15:38:44.203Z,99540.69
2023-03-06T15:41:46.872Z,99538.63
2023-03-06T15:45:03.372Z,99510.03
2023-03-06T15:48:16.936Z,99515.03
2023-03-06T15:51:19.818Z,99499.50
2023-03-06T15:54:22.447Z,99517.03
2023-03-06T15:57:29.158Z,99495.53
2023-03-06T16:00:38.517Z,99488.97
2023-03-06T16:03:41.155Z,99514.94
2023-03-06T16:06:47.257Z,99483.75
2023-03-06T16:09:49.871Z,99503.94
2023-03-06T16:12:59.820Z,99500.78
2023-03-06T16:16:02.492Z,99479.38
2023-03-06T16:19:23.859Z,99472.16
2023-03-06T16:22:28.410Z,99495.16
2023-03-06T16:25:31.191Z,99464.16
2023-03-06T16:28:33.789Z,99455.91
2023-03-06T16:31:37.043Z,99492.38
2023-03-06T16:34:39.622Z,99456.34
2023-03-06T16:37:42.540Z,99460.75
2023-03-06T16:40:45.383Z,99474.06
2023-03-06T16:43:48.496Z,99429.00
2023-03-06T16:46:51.336Z,99456.13
2023-03-06T16:49:58.097Z,99477.16
2023-03-06T16:53:00.913Z,99467.34
2023-03-06T16:56:03.603Z,99474.38
2023-03-06T16:59:06.163Z,99464.06
2023-03-06T17:02:10.967Z,99445.53
2023-03-06T17:05:13.879Z,99440.09
2023-03-06T17:08:16.537Z,99468.44
2023-03-06T17:11:20.506Z,99469.91
2023-03-06T17:14:23.172Z,99445.06
2023-03-06T17:17:25.947Z,99446.63
2023-03-06T17:20:28.532Z,99480.22
2023-03-06T17:23:31.075Z,99461.16
2023-03-06T17:26:34.027Z,99466.78
2023-03-06T17:29:37.143Z,99471.78
2023-03-06T17:32:42.889Z,99475.53
2023-03-06T17:35:45.618Z,99450.47
2023-03-06T17:38:48.629Z,99480.78
2023-03-06T17:41:51.450Z,99444.16
2023-03-06T17:44:54.322Z,99473.28
2023-03-06T17:47:57.224Z,99462.22
2023-03-06T17:51:00.650Z,99464.50
2023-03-06T17:54:03.561Z,99456.81
2023-03-06T17:57:06.353Z,99469.88
2023-03-06T18:00:10.865Z,99440.38
2023-03-06T18:03:19.010Z,99452.25
2023-03-06T18:06:22.553Z,99474.56
2023-03-06T18:09:25.537Z,99476.81
2023-03-06T18:12:29.485Z,99464.56
2023-03-06T18:15:32.173Z,99444.78
2023-03-06T18:18:35.269Z,99470.41
2023-03-06T18:21:39.981Z,99453.72
2023-03-06T18:24:43.903Z,99432.91
2023-03-06T18:27:46.849Z,99430.09
2023-03-06T18:30:50.010Z,99458.00
2023-03-06T18:33:55.188Z,99450.25
2023-03-06T18:36:58.118Z,99451.72
2023-03-06T18:40:01.028Z,99467.63
2023-03-06T18:43:03.746Z,99470.13
2023-03-06T18:46:06.997Z,99473.91
2023-03-06T18:49:11.850Z,99474.75
2023-03-06T18:52:15.017Z,99480.13
2023-03-06T18:55:17.891Z,99439.09
2023-03-06T18:58:21.855Z,99479.03
2023-03-06T19:01:25.521Z,99445.91
2023-03-06T19:04:28.597Z,99447.16
2023-03-06T19:07:31.491Z,99455.50
2023-03-06T19:10:36.374Z,99471.41
2023-03-06T19:13:39.341Z,99477.75
2023-03-06T19:16:42.692Z,99468.63
2023-03-06T19:19:45.510Z,99433.97
2023-03-06T19:22:48.225Z,99428.09
2023-03-06T19:25:59.130Z,99422.09
2023-03-06T19:29:02.160Z,99396.09
2023-03-06T19:32:05.317Z,99440.75
2023-03-06T19:35:12.650Z,99409.53
2023-03-06T19:38:15.672Z,99424.56
2023-03-06T19:41:18.403Z,99407.72
2023-03-06T19:44:21.348Z,99423.72
2023-03-06T19:47:24.264Z,99420.78
2023-03-06T19:50:30.702Z,99424.25
2023-03-06T19:53:35.315Z,99382.38
2023-03-06T19:56:38.170Z,99406.19
2023-03-06T19:59:41.930Z,99427.59
2023-03-06T20:02:44.824Z,99376.66
2023-03-06T20:05:47.980Z,99424.09
2023-03-06T20:08:51.377Z,99379.50
2023-03-06T20:11:54.774Z,99420.63
2023-03-06T20:14:57.392Z,99420.69
2023-03-06T20:18:00.243Z,99390.44
2023-03-06T20:21:04.541Z,99418.97
2023-03-06T20:24:09.997Z,99385.06
2023-03-06T20:27:13.289Z,99383.41
2023-03-06T20:30:17.200Z,99410.84
2023-03-06T20:33:22.288Z,99408.38
2023-03-06T20:36:28.963Z,99392.59
2023-03-06T20:39:32.270Z,99378.34
2023-03-06T20:42:35.251Z,99373.34
2023-03-06T20:45:38.154Z,99397.78
2023-03-06T20:48:42.076Z,99375.06
2023-03-06T20:51:45.856Z,99383.22
2023-03-06T20:54:48.983Z,99399.97
2023-03-06T20:57:52.606Z,99393.59
2023-03-06T21:00:55.545Z,99371.13
2023-03-06T21:03:58.766Z,99386.31
2023-03-06T21:07:01.366Z,99390.03
2023-03-06T21:10:04.647Z,99397.78
2023-03-06T21:13:07.537Z,99392.72
2023-03-06T21:16:13.716Z,99407.53
2023-03-06T21:19:17.178Z,99408.59
2023-03-06T21:22:20.379Z,99417.59
2023-03-06T21:25:23.266Z,99416.47
2023-03-06T21:28:25.872Z,99385.69
2023-03-06T21:31:29.638Z,99399.22
2023-03-06T21:34:32.314Z,99412.03
2023-03-06T21:37:34.948Z,99416.13
2023-03-06T21:40:38.085Z,99413.16
2023-03-06T21:43:41.244Z,99391.56
2023-03-06T21:46:43.874Z,99386.53
2023-03-06T21:49:49.001Z,99377.44
2023-03-06T21:52:52.294Z,99384.06
2023-03-06T21:55:54.909Z,99384.28
2023-03-06T21:58:58.359Z,99410.44
2023-03-06T22:02:01.024Z,99397.66
2023-03-06T22:05:04.656Z,99412.69
2023-03-06T22:08:07.379Z,99401.31
2023-03-06T22:11:13.334Z,99414.50
2023-03-06T22:14:15.964Z,99373.81
2023-03-06T22:17:18.480Z,99373.56
2023-03-06T22:20:21.103Z,99368.47
2023-03-06T22:23:23.812Z,99388.06
2023-03-06T22:26:28.183Z,99384.06
2023-03-06T22:29:30.962Z,99373.47
2023-03-06T22:32:33.711Z,99378.94
2023-03-06T22:35:36.367Z,99413.78
2023-03-06T22:38:41.205Z,99407.16
2023-03-06T22:41:43.772Z,99402.13
2023-03-06T22:44:46.491Z,99414.22
2023-03-06T22:47:49.019Z,99398.19
2023-03-06T22:50:51.574Z,99397.38
2023-03-06T22:53:54.295Z,99405.28
2023-03-06T22:56:56.900Z,99398.63
2023-03-06T22:59:59.469Z,99411.53
2023-03-06T23:03:02.302Z,99408.16
2023-03-06T23:06:09.859Z,99394.25
2023-03-06T23:09:21.555Z,99376.78
2023-03-06T23:12:44.156Z,99394.09
2023-03-06T23:16:07.234Z,99409.69
2023-03-06T23:19:28.982Z,99394.31
2023-03-06T23:22:50.294Z,99396.72
2023-03-06T23:26:13.979Z,99410.97
2023-03-06T23:29:16.624Z,99402.03
2023-03-06T23:32:19.341Z,99417.13
2023-03-06T23:35:22.159Z,99394.38
2023-03-06T23:38:24.747Z,99410.84
2023-03-06T23:41:27.330Z,99404.22
2023-03-06T23:44:29.994Z,99405.00
2023-03-06T23:47:34.152Z,99405.75
2023-03-06T23:50:39.749Z,99388.00
2023-03-06T23:53:43.989Z,99384.41
2023-03-06T23:56:46.575Z,99400.56
2023-03-06T23:59:49.190Z,99355.13
